sensor_id;sensor_type;location;lat;lon;timestamp;temperature;humidity
68912;SHT31;55953;51.650;-0.522;2022-10-17T00:01:08;15.70;91.35
68912;SHT31;55953;51.650;-0.522;2022-10-17T00:03:37;15.75;91.60
68912;SHT31;55953;51.650;-0.522;2022-10-17T00:06:08;15.76;91.50
68912;SHT31;55953;51.650;-0.522;2022-10-17T00:08:41;15.74;91.53
68912;SHT31;55953;51.650;-0.522;2022-10-17T00:11:20;15.79;91.69
68912;SHT31;55953;51.650;-0.522;2022-10-17T00:13:52;15.82;91.70
68912;SHT31;55953;51.650;-0.522;2022-10-17T00:16:23;15.86;91.63
68912;SHT31;55953;51.650;-0.522;2022-10-17T00:18:57;15.89;91.62
68912;SHT31;55953;51.650;-0.522;2022-10-17T00:21:25;15.90;91.62
68912;SHT31;55953;51.650;-0.522;2022-10-17T00:23:54;15.93;91.55
68912;SHT31;55953;51.650;-0.522;2022-10-17T00:26:22;15.95;91.57
68912;SHT31;55953;51.650;-0.522;2022-10-17T00:28:51;15.94;91.51
68912;SHT31;55953;51.650;-0.522;2022-10-17T00:31:20;15.97;91.62
68912;SHT31;55953;51.650;-0.522;2022-10-17T00:33:50;15.98;91.55
68912;SHT31;55953;51.650;-0.522;2022-10-17T00:36:20;15.98;91.56
68912;SHT31;55953;51.650;-0.522;2022-10-17T00:38:54;16.01;91.65
68912;SHT31;55953;51.650;-0.522;2022-10-17T00:41:27;16.09;91.78
68912;SHT31;55953;51.650;-0.522;2022-10-17T00:46:34;16.06;91.57
68912;SHT31;55953;51.650;-0.522;2022-10-17T00:49:09;16.07;91.65
68912;SHT31;55953;51.650;-0.522;2022-10-17T00:51:43;16.03;91.57
68912;SHT31;55953;51.650;-0.522;2022-10-17T00:54:30;16.01;91.58
68912;SHT31;55953;51.650;-0.522;2022-10-17T00:57:03;15.96;91.56
68912;SHT31;55953;51.650;-0.522;2022-10-17T00:59:32;15.91;91.52
68912;SHT31;55953;51.650;-0.522;2022-10-17T01:02:09;15.86;91.53
68912;SHT31;55953;51.650;-0.522;2022-10-17T01:04:42;15.85;91.60
68912;SHT31;55953;51.650;-0.522;2022-10-17T01:07:13;15.87;91.78
68912;SHT31;55953;51.650;-0.522;2022-10-17T01:09:41;15.92;91.88
68912;SHT31;55953;51.650;-0.522;2022-10-17T01:26:35;15.89;91.58
68912;SHT31;55953;51.650;-0.522;2022-10-17T01:32:53;15.85;91.65
68912;SHT31;55953;51.650;-0.522;2022-10-17T01:35:30;15.81;91.54
68912;SHT31;55953;51.650;-0.522;2022-10-17T01:38:29;15.76;91.48
68912;SHT31;55953;51.650;-0.522;2022-10-17T01:44:28;15.68;91.46
68912;SHT31;55953;51.650;-0.522;2022-10-17T01:47:04;15.66;91.54
68912;SHT31;55953;51.650;-0.522;2022-10-17T01:49:37;15.60;91.50
68912;SHT31;55953;51.650;-0.522;2022-10-17T01:52:15;15.61;91.61
68912;SHT31;55953;51.650;-0.522;2022-10-17T01:54:52;15.59;91.54
68912;SHT31;55953;51.650;-0.522;2022-10-17T02:00:10;15.48;91.55
68912;SHT31;55953;51.650;-0.522;2022-10-17T02:02:51;15.50;91.76
68912;SHT31;55953;51.650;-0.522;2022-10-17T02:05:28;15.46;91.68
68912;SHT31;55953;51.650;-0.522;2022-10-17T02:08:02;15.47;91.77
68912;SHT31;55953;51.650;-0.522;2022-10-17T02:16:24;15.47;91.78
68912;SHT31;55953;51.650;-0.522;2022-10-17T02:22:06;15.50;91.87
68912;SHT31;55953;51.650;-0.522;2022-10-17T02:24:46;15.48;91.77
68912;SHT31;55953;51.650;-0.522;2022-10-17T02:32:49;15.45;91.84
68912;SHT31;55953;51.650;-0.522;2022-10-17T02:35:26;15.46;91.82
68912;SHT31;55953;51.650;-0.522;2022-10-17T02:37:59;15.46;91.92
68912;SHT31;55953;51.650;-0.522;2022-10-17T02:40:31;15.44;91.88
68912;SHT31;55953;51.650;-0.522;2022-10-17T02:43:01;15.41;91.84
68912;SHT31;55953;51.650;-0.522;2022-10-17T02:45:31;15.39;91.86
68912;SHT31;55953;51.650;-0.522;2022-10-17T02:48:05;15.36;91.90
68912;SHT31;55953;51.650;-0.522;2022-10-17T02:53:52;15.30;91.89
68912;SHT31;55953;51.650;-0.522;2022-10-17T02:56:40;15.30;91.91
68912;SHT31;55953;51.650;-0.522;2022-10-17T02:59:17;15.27;91.82
68912;SHT31;55953;51.650;-0.522;2022-10-17T03:01:51;15.22;91.75
68912;SHT31;55953;51.650;-0.522;2022-10-17T03:04:19;15.20;91.69
68912;SHT31;55953;51.650;-0.522;2022-10-17T03:06:47;15.20;91.72
68912;SHT31;55953;51.650;-0.522;2022-10-17T03:09:17;15.20;91.70
68912;SHT31;55953;51.650;-0.522;2022-10-17T03:11:45;15.19;91.61
68912;SHT31;55953;51.650;-0.522;2022-10-17T03:14:13;15.17;91.56
68912;SHT31;55953;51.650;-0.522;2022-10-17T03:16:42;15.15;91.53
68912;SHT31;55953;51.650;-0.522;2022-10-17T03:19:10;15.14;91.59
68912;SHT31;55953;51.650;-0.522;2022-10-17T03:21:38;15.12;91.59
68912;SHT31;55953;51.650;-0.522;2022-10-17T03:24:07;15.10;91.64
68912;SHT31;55953;51.650;-0.522;2022-10-17T03:26:35;15.09;91.56
68912;SHT31;55953;51.650;-0.522;2022-10-17T03:29:03;15.10;91.64
68912;SHT31;55953;51.650;-0.522;2022-10-17T03:31:32;15.10;91.70
68912;SHT31;55953;51.650;-0.522;2022-10-17T03:34:00;15.08;91.76
68912;SHT31;55953;51.650;-0.522;2022-10-17T03:36:30;15.07;91.86
68912;SHT31;55953;51.650;-0.522;2022-10-17T03:38:58;15.09;91.83
68912;SHT31;55953;51.650;-0.522;2022-10-17T03:41:26;15.07;91.81
68912;SHT31;55953;51.650;-0.522;2022-10-17T03:43:54;15.07;91.74
68912;SHT31;55953;51.650;-0.522;2022-10-17T03:46:22;15.04;91.71
68912;SHT31;55953;51.650;-0.522;2022-10-17T03:48:50;15.01;91.75
68912;SHT31;55953;51.650;-0.522;2022-10-17T03:51:21;15.04;91.85
68912;SHT31;55953;51.650;-0.522;2022-10-17T03:53:52;15.03;91.87
68912;SHT31;55953;51.650;-0.522;2022-10-17T03:56:21;15.04;91.83
68912;SHT31;55953;51.650;-0.522;2022-10-17T03:58:58;15.02;91.85
68912;SHT31;55953;51.650;-0.522;2022-10-17T04:01:27;15.04;91.87
68912;SHT31;55953;51.650;-0.522;2022-10-17T04:03:55;15.05;91.92
68912;SHT31;55953;51.650;-0.522;2022-10-17T04:06:26;15.05;91.79
68912;SHT31;55953;51.650;-0.522;2022-10-17T04:08:54;15.04;91.76
68912;SHT31;55953;51.650;-0.522;2022-10-17T04:11:26;15.02;91.74
68912;SHT31;55953;51.650;-0.522;2022-10-17T04:13:57;15.04;91.78
68912;SHT31;55953;51.650;-0.522;2022-10-17T04:16:26;15.02;91.78
68912;SHT31;55953;51.650;-0.522;2022-10-17T04:19:03;15.04;91.79
68912;SHT31;55953;51.650;-0.522;2022-10-17T04:21:36;15.04;91.79
68912;SHT31;55953;51.650;-0.522;2022-10-17T04:24:07;15.04;91.87
68912;SHT31;55953;51.650;-0.522;2022-10-17T04:26:58;15.08;91.84
68912;SHT31;55953;51.650;-0.522;2022-10-17T04:29:28;15.04;91.70
68912;SHT31;55953;51.650;-0.522;2022-10-17T04:32:16;15.02;91.67
68912;SHT31;55953;51.650;-0.522;2022-10-17T04:35:07;15.00;91.64
68912;SHT31;55953;51.650;-0.522;2022-10-17T04:37:36;15.01;91.72
68912;SHT31;55953;51.650;-0.522;2022-10-17T04:40:08;15.02;91.74
68912;SHT31;55953;51.650;-0.522;2022-10-17T04:42:37;15.03;91.69
68912;SHT31;55953;51.650;-0.522;2022-10-17T04:45:05;15.01;91.60
68912;SHT31;55953;51.650;-0.522;2022-10-17T04:47:34;15.02;91.69
68912;SHT31;55953;51.650;-0.522;2022-10-17T04:50:02;15.00;91.60
68912;SHT31;55953;51.650;-0.522;2022-10-17T04:52:33;14.99;91.64
68912;SHT31;55953;51.650;-0.522;2022-10-17T04:55:04;14.98;91.64
68912;SHT31;55953;51.650;-0.522;2022-10-17T04:57:34;14.97;91.65
68912;SHT31;55953;51.650;-0.522;2022-10-17T05:00:16;14.96;91.67
68912;SHT31;55953;51.650;-0.522;2022-10-17T05:02:55;14.97;91.67
68912;SHT31;55953;51.650;-0.522;2022-10-17T05:05:23;14.98;91.72
68912;SHT31;55953;51.650;-0.522;2022-10-17T05:07:52;14.97;91.62
68912;SHT31;55953;51.650;-0.522;2022-10-17T05:10:24;14.96;91.59
68912;SHT31;55953;51.650;-0.522;2022-10-17T05:12:52;14.93;91.54
68912;SHT31;55953;51.650;-0.522;2022-10-17T05:15:22;14.94;91.67
68912;SHT31;55953;51.650;-0.522;2022-10-17T05:17:55;14.93;91.59
68912;SHT31;55953;51.650;-0.522;2022-10-17T05:20:24;14.91;91.56
68912;SHT31;55953;51.650;-0.522;2022-10-17T05:22:53;14.93;91.66
68912;SHT31;55953;51.650;-0.522;2022-10-17T05:25:21;14.93;91.58
68912;SHT31;55953;51.650;-0.522;2022-10-17T05:27:49;14.90;91.54
68912;SHT31;55953;51.650;-0.522;2022-10-17T05:30:17;14.89;91.59
68912;SHT31;55953;51.650;-0.522;2022-10-17T05:32:46;14.88;91.64
68912;SHT31;55953;51.650;-0.522;2022-10-17T05:35:14;14.90;91.69
68912;SHT31;55953;51.650;-0.522;2022-10-17T05:37:42;14.90;91.61
68912;SHT31;55953;51.650;-0.522;2022-10-17T05:40:10;14.87;91.55
68912;SHT31;55953;51.650;-0.522;2022-10-17T05:42:44;14.90;91.70
68912;SHT31;55953;51.650;-0.522;2022-10-17T05:45:16;14.89;91.50
68912;SHT31;55953;51.650;-0.522;2022-10-17T05:47:45;14.88;91.51
68912;SHT31;55953;51.650;-0.522;2022-10-17T05:50:14;14.86;91.52
68912;SHT31;55953;51.650;-0.522;2022-10-17T05:52:56;14.85;91.52
68912;SHT31;55953;51.650;-0.522;2022-10-17T05:55:24;14.84;91.61
68912;SHT31;55953;51.650;-0.522;2022-10-17T05:57:52;14.86;91.66
68912;SHT31;55953;51.650;-0.522;2022-10-17T06:00:21;14.86;91.62
68912;SHT31;55953;51.650;-0.522;2022-10-17T06:02:54;14.82;91.52
68912;SHT31;55953;51.650;-0.522;2022-10-17T06:05:23;14.80;91.57
68912;SHT31;55953;51.650;-0.522;2022-10-17T06:07:51;14.78;91.55
68912;SHT31;55953;51.650;-0.522;2022-10-17T06:10:24;14.75;91.44
68912;SHT31;55953;51.650;-0.522;2022-10-17T06:12:53;14.74;91.51
68912;SHT31;55953;51.650;-0.522;2022-10-17T06:15:21;14.71;91.49
68912;SHT31;55953;51.650;-0.522;2022-10-17T06:17:55;14.73;91.61
68912;SHT31;55953;51.650;-0.522;2022-10-17T06:20:23;14.72;91.45
68912;SHT31;55953;51.650;-0.522;2022-10-17T06:22:51;14.69;91.43
68912;SHT31;55953;51.650;-0.522;2022-10-17T06:25:32;14.67;91.43
68912;SHT31;55953;51.650;-0.522;2022-10-17T06:28:01;14.66;91.40
68912;SHT31;55953;51.650;-0.522;2022-10-17T06:30:29;14.64;91.43
68912;SHT31;55953;51.650;-0.522;2022-10-17T06:32:57;14.62;91.39
68912;SHT31;55953;51.650;-0.522;2022-10-17T06:35:25;14.60;91.32
68912;SHT31;55953;51.650;-0.522;2022-10-17T06:37:53;14.57;91.29
68912;SHT31;55953;51.650;-0.522;2022-10-17T06:40:22;14.55;91.30
68912;SHT31;55953;51.650;-0.522;2022-10-17T06:42:50;14.55;91.29
68912;SHT31;55953;51.650;-0.522;2022-10-17T06:45:44;14.52;91.29
68912;SHT31;55953;51.650;-0.522;2022-10-17T06:48:25;14.52;91.29
68912;SHT31;55953;51.650;-0.522;2022-10-17T06:51:08;14.52;91.28
68912;SHT31;55953;51.650;-0.522;2022-10-17T06:53:49;14.52;91.17
68912;SHT31;55953;51.650;-0.522;2022-10-17T06:56:45;14.51;91.21
68912;SHT31;55953;51.650;-0.522;2022-10-17T06:59:30;14.49;91.15
68912;SHT31;55953;51.650;-0.522;2022-10-17T07:02:04;14.49;91.12
68912;SHT31;55953;51.650;-0.522;2022-10-17T07:04:33;14.48;91.10
68912;SHT31;55953;51.650;-0.522;2022-10-17T07:07:01;14.46;91.02
68912;SHT31;55953;51.650;-0.522;2022-10-17T07:09:31;14.46;90.98
68912;SHT31;55953;51.650;-0.522;2022-10-17T07:11:59;14.44;90.87
68912;SHT31;55953;51.650;-0.522;2022-10-17T07:14:27;14.44;90.90
68912;SHT31;55953;51.650;-0.522;2022-10-17T07:16:59;14.44;90.94
68912;SHT31;55953;51.650;-0.522;2022-10-17T07:19:31;14.45;90.93
68912;SHT31;55953;51.650;-0.522;2022-10-17T07:21:59;14.43;90.81
68912;SHT31;55953;51.650;-0.522;2022-10-17T07:24:27;14.45;90.77
68912;SHT31;55953;51.650;-0.522;2022-10-17T07:27:01;14.48;90.74
68912;SHT31;55953;51.650;-0.522;2022-10-17T07:29:30;14.50;90.79
68912;SHT31;55953;51.650;-0.522;2022-10-17T07:32:05;14.56;90.71
68912;SHT31;55953;51.650;-0.522;2022-10-17T07:34:35;14.58;90.67
68912;SHT31;55953;51.650;-0.522;2022-10-17T07:37:05;14.62;90.59
68912;SHT31;55953;51.650;-0.522;2022-10-17T07:39:33;14.62;90.42
68912;SHT31;55953;51.650;-0.522;2022-10-17T07:42:02;14.66;90.56
68912;SHT31;55953;51.650;-0.522;2022-10-17T07:44:31;14.72;90.63
68912;SHT31;55953;51.650;-0.522;2022-10-17T07:47:00;14.75;90.44
68912;SHT31;55953;51.650;-0.522;2022-10-17T07:49:28;14.78;90.43
68912;SHT31;55953;51.650;-0.522;2022-10-17T07:51:57;14.82;90.31
68912;SHT31;55953;51.650;-0.522;2022-10-17T07:54:25;14.86;90.20
68912;SHT31;55953;51.650;-0.522;2022-10-17T07:56:53;14.92;90.34
68912;SHT31;55953;51.650;-0.522;2022-10-17T07:59:21;15.01;90.33
68912;SHT31;55953;51.650;-0.522;2022-10-17T08:01:49;15.07;90.26
68912;SHT31;55953;51.650;-0.522;2022-10-17T08:04:16;15.11;90.07
68912;SHT31;55953;51.650;-0.522;2022-10-17T08:06:44;15.15;90.09
68912;SHT31;55953;51.650;-0.522;2022-10-17T08:09:12;15.20;89.96
68912;SHT31;55953;51.650;-0.522;2022-10-17T08:11:40;15.23;89.77
68912;SHT31;55953;51.650;-0.522;2022-10-17T08:14:10;15.25;89.69
68912;SHT31;55953;51.650;-0.522;2022-10-17T08:16:40;15.28;89.74
68912;SHT31;55953;51.650;-0.522;2022-10-17T08:19:08;15.31;89.55
68912;SHT31;55953;51.650;-0.522;2022-10-17T08:21:37;15.36;89.58
68912;SHT31;55953;51.650;-0.522;2022-10-17T08:24:05;15.42;89.50
68912;SHT31;55953;51.650;-0.522;2022-10-17T08:26:33;15.49;89.54
68912;SHT31;55953;51.650;-0.522;2022-10-17T08:29:14;15.52;89.43
68912;SHT31;55953;51.650;-0.522;2022-10-17T08:31:43;15.56;89.22
68912;SHT31;55953;51.650;-0.522;2022-10-17T08:34:15;15.55;89.04
68912;SHT31;55953;51.650;-0.522;2022-10-17T08:36:43;15.54;89.14
68912;SHT31;55953;51.650;-0.522;2022-10-17T08:39:11;15.52;89.02
68912;SHT31;55953;51.650;-0.522;2022-10-17T08:47:26;15.51;88.91
68912;SHT31;55953;51.650;-0.522;2022-10-17T08:50:03;15.51;88.93
68912;SHT31;55953;51.650;-0.522;2022-10-17T08:52:53;15.53;88.99
68912;SHT31;55953;51.650;-0.522;2022-10-17T08:55:34;15.55;88.78
68912;SHT31;55953;51.650;-0.522;2022-10-17T08:58:12;15.57;88.56
68912;SHT31;55953;51.650;-0.522;2022-10-17T09:01:46;15.58;88.37
68912;SHT31;55953;51.650;-0.522;2022-10-17T09:12:17;15.79;88.36
68912;SHT31;55953;51.650;-0.522;2022-10-17T09:17:51;15.92;88.01
68912;SHT31;55953;51.650;-0.522;2022-10-17T09:20:35;15.93;88.07
68912;SHT31;55953;51.650;-0.522;2022-10-17T09:23:09;15.91;87.95
68912;SHT31;55953;51.650;-0.522;2022-10-17T09:25:44;15.91;87.91
68912;SHT31;55953;51.650;-0.522;2022-10-17T09:28:38;15.92;87.91
68912;SHT31;55953;51.650;-0.522;2022-10-17T09:31:12;15.97;87.62
68912;SHT31;55953;51.650;-0.522;2022-10-17T09:33:50;15.97;87.31
68912;SHT31;55953;51.650;-0.522;2022-10-17T09:36:26;16.00;87.36
68912;SHT31;55953;51.650;-0.522;2022-10-17T09:39:05;15.99;87.00
68912;SHT31;55953;51.650;-0.522;2022-10-17T09:41:48;15.93;87.13
68912;SHT31;55953;51.650;-0.522;2022-10-17T09:49:48;15.92;86.97
68912;SHT31;55953;51.650;-0.522;2022-10-17T09:55:14;15.84;86.02
68912;SHT31;55953;51.650;-0.522;2022-10-17T09:58:11;15.85;85.85
68912;SHT31;55953;51.650;-0.522;2022-10-17T10:00:41;15.87;85.91
68912;SHT31;55953;51.650;-0.522;2022-10-17T10:03:23;15.86;85.07
68912;SHT31;55953;51.650;-0.522;2022-10-17T10:05:58;15.85;84.68
68912;SHT31;55953;51.650;-0.522;2022-10-17T10:08:33;15.84;85.26
68912;SHT31;55953;51.650;-0.522;2022-10-17T10:11:06;15.85;85.08
68912;SHT31;55953;51.650;-0.522;2022-10-17T10:13:40;15.84;84.80
68912;SHT31;55953;51.650;-0.522;2022-10-17T10:16:18;15.80;84.58
68912;SHT31;55953;51.650;-0.522;2022-10-17T10:18:57;15.74;84.42
68912;SHT31;55953;51.650;-0.522;2022-10-17T10:21:26;15.72;83.80
68912;SHT31;55953;51.650;-0.522;2022-10-17T10:26:26;15.62;83.44
68912;SHT31;55953;51.650;-0.522;2022-10-17T10:38:01;15.59;83.07
68912;SHT31;55953;51.650;-0.522;2022-10-17T10:40:37;15.57;82.75
68912;SHT31;55953;51.650;-0.522;2022-10-17T10:43:19;15.56;83.14
68912;SHT31;55953;51.650;-0.522;2022-10-17T10:46:01;15.57;82.18
68912;SHT31;55953;51.650;-0.522;2022-10-17T10:49:00;15.66;82.65
68912;SHT31;55953;51.650;-0.522;2022-10-17T10:51:34;15.76;82.60
68912;SHT31;55953;51.650;-0.522;2022-10-17T10:56:55;16.02;82.26
68912;SHT31;55953;51.650;-0.522;2022-10-17T10:59:33;16.15;81.21
68912;SHT31;55953;51.650;-0.522;2022-10-17T11:05:05;16.25;80.95
68912;SHT31;55953;51.650;-0.522;2022-10-17T11:07:51;16.27;80.51
68912;SHT31;55953;51.650;-0.522;2022-10-17T11:14:11;16.23;79.06
68912;SHT31;55953;51.650;-0.522;2022-10-17T11:16:53;16.22;79.98
68912;SHT31;55953;51.650;-0.522;2022-10-17T11:22:27;16.29;79.46
68912;SHT31;55953;51.650;-0.522;2022-10-17T11:25:26;16.32;79.97
68912;SHT31;55953;51.650;-0.522;2022-10-17T11:28:10;16.39;79.79
68912;SHT31;55953;51.650;-0.522;2022-10-17T11:30:51;16.45;78.61
68912;SHT31;55953;51.650;-0.522;2022-10-17T11:36:13;16.63;79.02
68912;SHT31;55953;51.650;-0.522;2022-10-17T11:38:46;16.75;79.09
68912;SHT31;55953;51.650;-0.522;2022-10-17T11:41:47;16.80;78.37
68912;SHT31;55953;51.650;-0.522;2022-10-17T11:44:38;16.88;77.34
68912;SHT31;55953;51.650;-0.522;2022-10-17T11:50:31;17.07;77.50
68912;SHT31;55953;51.650;-0.522;2022-10-17T11:53:32;17.18;76.56
68912;SHT31;55953;51.650;-0.522;2022-10-17T11:56:20;17.24;76.36
68912;SHT31;55953;51.650;-0.522;2022-10-17T12:02:09;17.24;75.65
68912;SHT31;55953;51.650;-0.522;2022-10-17T12:10:38;17.18;72.07
68912;SHT31;55953;51.650;-0.522;2022-10-17T12:18:47;16.97;71.90
68912;SHT31;55953;51.650;-0.522;2022-10-17T12:21:58;16.93;71.89
68912;SHT31;55953;51.650;-0.522;2022-10-17T12:27:48;16.97;72.85
68912;SHT31;55953;51.650;-0.522;2022-10-17T12:33:00;17.24;73.22
68912;SHT31;55953;51.650;-0.522;2022-10-17T12:35:49;17.43;72.28
68912;SHT31;55953;51.650;-0.522;2022-10-17T12:38:38;17.60;70.64
68912;SHT31;55953;51.650;-0.522;2022-10-17T12:41:06;17.68;70.07
68912;SHT31;55953;51.650;-0.522;2022-10-17T12:43:36;17.70;70.75
68912;SHT31;55953;51.650;-0.522;2022-10-17T12:46:11;17.72;70.50
68912;SHT31;55953;51.650;-0.522;2022-10-17T12:49:01;17.69;69.69
68912;SHT31;55953;51.650;-0.522;2022-10-17T12:52:03;17.64;69.25
68912;SHT31;55953;51.650;-0.522;2022-10-17T12:54:41;17.61;67.51
68912;SHT31;55953;51.650;-0.522;2022-10-17T13:00:49;17.64;66.05
68912;SHT31;55953;51.650;-0.522;2022-10-17T13:03:01;17.66;64.71
68912;SHT31;55953;51.650;-0.522;2022-10-17T13:05:35;17.66;64.40
68912;SHT31;55953;51.650;-0.522;2022-10-17T13:08:07;17.63;65.74
68912;SHT31;55953;51.650;-0.522;2022-10-17T13:10:54;17.63;65.05
68912;SHT31;55953;51.650;-0.522;2022-10-17T13:16:32;17.62;64.13
68912;SHT31;55953;51.650;-0.522;2022-10-17T13:19:03;17.60;64.87
68912;SHT31;55953;51.650;-0.522;2022-10-17T13:22:00;17.64;65.24
68912;SHT31;55953;51.650;-0.522;2022-10-17T13:24:34;17.66;64.60
68912;SHT31;55953;51.650;-0.522;2022-10-17T13:29:57;17.64;63.34
68912;SHT31;55953;51.650;-0.522;2022-10-17T13:32:35;17.60;63.62
68912;SHT31;55953;51.650;-0.522;2022-10-17T13:37:44;17.51;63.36
68912;SHT31;55953;51.650;-0.522;2022-10-17T13:40:21;17.55;63.64
68912;SHT31;55953;51.650;-0.522;2022-10-17T13:43:18;17.55;63.91
68912;SHT31;55953;51.650;-0.522;2022-10-17T13:45:53;17.56;63.77
68912;SHT31;55953;51.650;-0.522;2022-10-17T13:48:47;17.58;63.90
68912;SHT31;55953;51.650;-0.522;2022-10-17T13:51:16;17.60;64.13
68912;SHT31;55953;51.650;-0.522;2022-10-17T13:53:44;17.67;63.51
68912;SHT31;55953;51.650;-0.522;2022-10-17T13:58:56;17.68;64.22
68912;SHT31;55953;51.650;-0.522;2022-10-17T14:01:28;17.74;64.57
68912;SHT31;55953;51.650;-0.522;2022-10-17T14:03:57;17.79;64.34
68912;SHT31;55953;51.650;-0.522;2022-10-17T14:06:41;17.77;64.06
68912;SHT31;55953;51.650;-0.522;2022-10-17T14:09:22;17.76;64.86
68912;SHT31;55953;51.650;-0.522;2022-10-17T14:12:07;17.75;64.28
68912;SHT31;55953;51.650;-0.522;2022-10-17T14:14:45;17.70;64.01
68912;SHT31;55953;51.650;-0.522;2022-10-17T14:17:36;17.65;64.41
68912;SHT31;55953;51.650;-0.522;2022-10-17T14:20:06;17.64;64.22
68912;SHT31;55953;51.650;-0.522;2022-10-17T14:23:04;17.65;64.04
68912;SHT31;55953;51.650;-0.522;2022-10-17T14:26:06;17.68;64.01
68912;SHT31;55953;51.650;-0.522;2022-10-17T14:28:49;17.74;64.68
68912;SHT31;55953;51.650;-0.522;2022-10-17T14:31:34;17.80;64.79
68912;SHT31;55953;51.650;-0.522;2022-10-17T14:34:03;17.89;64.75
68912;SHT31;55953;51.650;-0.522;2022-10-17T14:36:34;17.89;63.47
68912;SHT31;55953;51.650;-0.522;2022-10-17T14:39:07;17.89;63.97
68912;SHT31;55953;51.650;-0.522;2022-10-17T14:41:48;17.91;63.37
68912;SHT31;55953;51.650;-0.522;2022-10-17T14:44:25;17.89;62.58
68912;SHT31;55953;51.650;-0.522;2022-10-17T14:47:01;17.87;62.43
68912;SHT31;55953;51.650;-0.522;2022-10-17T14:50:04;17.88;63.22
68912;SHT31;55953;51.650;-0.522;2022-10-17T14:55:38;17.93;64.24
68912;SHT31;55953;51.650;-0.522;2022-10-17T14:58:25;17.90;64.07
68912;SHT31;55953;51.650;-0.522;2022-10-17T15:00:57;17.83;63.75
68912;SHT31;55953;51.650;-0.522;2022-10-17T15:03:28;17.73;64.72
68912;SHT31;55953;51.650;-0.522;2022-10-17T15:05:56;17.70;64.15
68912;SHT31;55953;51.650;-0.522;2022-10-17T15:08:24;17.71;64.63
68912;SHT31;55953;51.650;-0.522;2022-10-17T15:10:52;17.74;64.72
68912;SHT31;55953;51.650;-0.522;2022-10-17T15:13:20;17.72;64.51
68912;SHT31;55953;51.650;-0.522;2022-10-17T15:16:04;17.73;63.96
68912;SHT31;55953;51.650;-0.522;2022-10-17T15:18:44;17.73;64.32
68912;SHT31;55953;51.650;-0.522;2022-10-17T15:21:13;17.72;64.89
68912;SHT31;55953;51.650;-0.522;2022-10-17T15:24:03;17.74;64.46
68912;SHT31;55953;51.650;-0.522;2022-10-17T15:26:32;17.76;63.98
68912;SHT31;55953;51.650;-0.522;2022-10-17T15:29:01;17.73;63.67
68912;SHT31;55953;51.650;-0.522;2022-10-17T15:31:30;17.73;62.61
68912;SHT31;55953;51.650;-0.522;2022-10-17T15:33:58;17.75;62.59
68912;SHT31;55953;51.650;-0.522;2022-10-17T15:36:29;17.77;63.00
68912;SHT31;55953;51.650;-0.522;2022-10-17T15:39:05;17.75;63.18
68912;SHT31;55953;51.650;-0.522;2022-10-17T15:41:34;17.70;63.16
68912;SHT31;55953;51.650;-0.522;2022-10-17T15:44:02;17.61;62.62
68912;SHT31;55953;51.650;-0.522;2022-10-17T15:46:31;17.51;62.51
68912;SHT31;55953;51.650;-0.522;2022-10-17T15:49:05;17.38;62.41
68912;SHT31;55953;51.650;-0.522;2022-10-17T15:51:39;17.29;63.21
68912;SHT31;55953;51.650;-0.522;2022-10-17T15:54:07;17.23;63.88
68912;SHT31;55953;51.650;-0.522;2022-10-17T15:56:36;17.16;64.20
68912;SHT31;55953;51.650;-0.522;2022-10-17T15:59:11;17.07;64.55
68912;SHT31;55953;51.650;-0.522;2022-10-17T16:01:44;17.01;64.72
68912;SHT31;55953;51.650;-0.522;2022-10-17T16:04:12;17.02;65.50
68912;SHT31;55953;51.650;-0.522;2022-10-17T16:06:41;16.98;65.80
68912;SHT31;55953;51.650;-0.522;2022-10-17T16:09:09;16.89;66.12
68912;SHT31;55953;51.650;-0.522;2022-10-17T16:11:38;16.81;65.89
68912;SHT31;55953;51.650;-0.522;2022-10-17T16:14:13;16.77;66.22
68912;SHT31;55953;51.650;-0.522;2022-10-17T16:16:42;16.64;66.09
68912;SHT31;55953;51.650;-0.522;2022-10-17T16:19:11;16.49;66.61
68912;SHT31;55953;51.650;-0.522;2022-10-17T16:21:39;16.38;67.08
68912;SHT31;55953;51.650;-0.522;2022-10-17T16:24:09;16.32;67.30
68912;SHT31;55953;51.650;-0.522;2022-10-17T16:26:38;16.27;67.62
68912;SHT31;55953;51.650;-0.522;2022-10-17T16:29:07;16.26;67.64
68912;SHT31;55953;51.650;-0.522;2022-10-17T16:31:38;16.17;68.04
68912;SHT31;55953;51.650;-0.522;2022-10-17T16:34:10;16.09;68.62
68912;SHT31;55953;51.650;-0.522;2022-10-17T16:36:40;16.04;69.18
68912;SHT31;55953;51.650;-0.522;2022-10-17T16:39:09;15.98;68.94
68912;SHT31;55953;51.650;-0.522;2022-10-17T16:41:37;15.98;69.35
68912;SHT31;55953;51.650;-0.522;2022-10-17T16:44:07;15.86;69.56
68912;SHT31;55953;51.650;-0.522;2022-10-17T16:46:40;15.66;69.98
68912;SHT31;55953;51.650;-0.522;2022-10-17T16:49:09;15.48;69.89
68912;SHT31;55953;51.650;-0.522;2022-10-17T16:51:37;15.40;70.50
68912;SHT31;55953;51.650;-0.522;2022-10-17T16:54:04;15.36;71.04
68912;SHT31;55953;51.650;-0.522;2022-10-17T16:56:32;15.32;71.52
68912;SHT31;55953;51.650;-0.522;2022-10-17T16:59:00;15.30;71.84
68912;SHT31;55953;51.650;-0.522;2022-10-17T17:01:29;15.18;72.53
68912;SHT31;55953;51.650;-0.522;2022-10-17T17:03:57;15.15;72.79
68912;SHT31;55953;51.650;-0.522;2022-10-17T17:06:28;15.15;72.62
68912;SHT31;55953;51.650;-0.522;2022-10-17T17:08:57;15.12;72.79
68912;SHT31;55953;51.650;-0.522;2022-10-17T17:11:26;14.99;73.12
68912;SHT31;55953;51.650;-0.522;2022-10-17T17:13:55;14.87;73.33
68912;SHT31;55953;51.650;-0.522;2022-10-17T17:16:25;14.69;73.68
68912;SHT31;55953;51.650;-0.522;2022-10-17T17:18:55;14.58;74.26
68912;SHT31;55953;51.650;-0.522;2022-10-17T17:21:26;14.50;74.52
68912;SHT31;55953;51.650;-0.522;2022-10-17T17:23:54;14.40;74.84
68912;SHT31;55953;51.650;-0.522;2022-10-17T17:26:26;14.39;74.94
68912;SHT31;55953;51.650;-0.522;2022-10-17T17:28:58;14.36;75.13
68912;SHT31;55953;51.650;-0.522;2022-10-17T17:31:28;14.31;75.24
68912;SHT31;55953;51.650;-0.522;2022-10-17T17:33:59;14.28;75.34
68912;SHT31;55953;51.650;-0.522;2022-10-17T17:36:28;14.26;75.35
68912;SHT31;55953;51.650;-0.522;2022-10-17T17:39:00;14.15;75.39
68912;SHT31;55953;51.650;-0.522;2022-10-17T17:41:32;14.03;75.82
68912;SHT31;55953;51.650;-0.522;2022-10-17T17:44:02;14.01;75.94
68912;SHT31;55953;51.650;-0.522;2022-10-17T17:46:30;13.96;75.75
68912;SHT31;55953;51.650;-0.522;2022-10-17T17:48:59;13.84;75.99
68912;SHT31;55953;51.650;-0.522;2022-10-17T17:51:28;13.75;76.46
68912;SHT31;55953;51.650;-0.522;2022-10-17T17:53:56;13.64;76.81
68912;SHT31;55953;51.650;-0.522;2022-10-17T17:56:25;13.55;77.18
68912;SHT31;55953;51.650;-0.522;2022-10-17T17:58:56;13.51;77.32
68912;SHT31;55953;51.650;-0.522;2022-10-17T18:01:27;13.40;77.58
68912;SHT31;55953;51.650;-0.522;2022-10-17T18:04:03;13.32;77.73
68912;SHT31;55953;51.650;-0.522;2022-10-17T18:06:35;13.32;77.94
68912;SHT31;55953;51.650;-0.522;2022-10-17T18:09:04;13.40;77.79
68912;SHT31;55953;51.650;-0.522;2022-10-17T18:11:33;13.35;77.90
68912;SHT31;55953;51.650;-0.522;2022-10-17T18:14:05;13.26;78.03